Terminal Aerodrome Forecast
Issued by NWS

Home | Current Version | Previous Version | Text Only | Print | Product List | Glossary Off
Versions: 1 2 3 4 5 6 7 8 9 10 11 12 13 14 15

000
FTUS43 KMPX 060542
TAFRWF
TAF
KRWF 060542Z 0606/0706 22007KT 6SM BR SCT014
      TEMPO 0607/0611 2SM BR
     FM061100 22008KT P6SM SCT120 BKN200
     FM061700 21014G22KT P6SM BKN120
     FM062100 22015G25KT P6SM OVC070=

USA.gov is the U.S. government's official web portal to all federal, state and local government web resources and services.